Time;durP1;ratioP1;P1;durP2;ratioP2;P2;SDS_P1;SDS_P2;PMS_P1;PMS_P2;Temp;Humidity;BMP_temperature;BMP_pressure;BME280_temperature;BME280_humidity;BME280_pressure;Samples;Min_cycle;Max_cycle;Signal;HPM_P1;HPM_P2
2022/01/17 00:02:54;;;;;;;;;;;;;;;;;;;;;
2022/01/17 00:26:52;;;;;;;114.38;84.90;;;5.30;99.90;;;;;;4920239;29;20207;-89
2022/01/17 00:36:46;;;;;;;112.72;81.35;;;5.10;99.90;;;;;;4979197;23;20632;-89
2022/01/17 00:43:13;;;;;;;104.95;69.22;;;5.20;99.90;;;;;;4940093;29;20314;-90
2022/01/17 00:46:24;;;;;;;105.93;79.07;;;5.20;99.90;;;;;;4938767;29;20276;-89
2022/01/17 00:52:28;;;;;;;106.22;74.10;;;5.20;99.90;;;;;;4917884;29;20189;-90
2022/01/17 01:01:09;;;;;;;101.80;68.60;;;5.20;99.90;;;;;;4904091;29;20173;-90
2022/01/17 01:04:22;;;;;;;;;;;;;;;;;;;;;
2022/01/17 01:07:13;;;;;;;105.32;65.40;;;5.30;99.90;;;;;;4939470;29;20655;-90
2022/01/17 01:10:22;;;;;;;114.78;78.63;;;5.20;99.90;;;;;;4938945;29;20240;-90
2022/01/17 01:16:43;;;;;;;118.97;85.60;;;5.30;99.90;;;;;;5044789;23;20692;-90
2022/01/17 01:19:30;;;;;;;107.97;71.82;;;5.30;99.90;;;;;;4938025;29;20303;-90
2022/01/17 01:28:04;;;;;;;106.97;65.88;;;5.30;99.90;;;;;;4254357;27;20293;-89
2022/01/17 01:30:30;;;;;;;104.53;63.78;;;5.30;99.90;;;;;;5011122;23;20263;-86
2022/01/17 01:32:58;;;;;;;106.82;70.65;;;5.30;99.90;;;;;;4936735;29;20173;-87
2022/01/17 01:35:45;;;;;;;119.07;88.43;;;5.30;99.90;;;;;;4937598;29;20192;-87
2022/01/17 01:38:11;;;;;;;110.05;68.18;;;5.30;99.90;;;;;;4936981;29;20649;-86
2022/01/17 01:40:37;;;;;;;106.73;61.33;;;5.30;99.90;;;;;;4936158;29;20177;-86
2022/01/17 01:43:03;;;;;;;112.07;76.30;;;5.30;99.90;;;;;;4936144;29;20420;-86
2022/01/17 01:45:29;;;;;;;105.95;63.25;;;5.40;99.90;;;;;;4936065;29;20428;-86
2022/01/17 01:47:55;;;;;;;101.03;59.93;;;5.40;99.90;;;;;;4937044;29;20168;-87
2022/01/17 01:50:24;;;;;;;106.65;69.43;;;5.40;99.90;;;;;;4937177;29;20456;-86
2022/01/17 01:52:50;;;;;;;113.30;69.72;;;5.40;99.90;;;;;;4936198;29;20641;-86
2022/01/17 01:55:21;;;;;;;111.38;70.55;;;5.40;99.90;;;;;;4936639;29;20188;-86
2022/01/17 01:57:47;;;;;;;106.18;67.32;;;5.40;99.90;;;;;;4935709;29;20169;-86
2022/01/17 02:00:14;;;;;;;109.43;66.82;;;5.40;99.90;;;;;;4937121;29;20169;-86
2022/01/17 02:02:40;;;;;;;110.13;56.78;;;5.40;99.90;;;;;;4936344;29;20552;-86
2022/01/17 02:05:07;;;;;;;115.07;78.57;;;5.40;99.90;;;;;;4936681;29;20240;-86
2022/01/17 02:07:36;;;;;;;113.63;68.95;;;5.40;99.90;;;;;;4935729;29;20468;-86
2022/01/17 02:10:09;;;;;;;109.22;68.55;;;5.40;99.90;;;;;;4936623;29;20244;-86
2022/01/17 02:12:36;;;;;;;114.03;70.63;;;5.40;99.90;;;;;;4937144;29;20153;-86
2022/01/17 02:15:05;;;;;;;118.32;77.90;;;5.40;99.90;;;;;;4935321;29;20678;-86
2022/01/17 02:17:34;;;;;;;107.40;66.55;;;5.50;99.90;;;;;;4936583;29;20194;-86
2022/01/17 02:20:07;;;;;;;106.65;68.35;;;5.50;99.90;;;;;;4936427;29;20165;-86
2022/01/17 02:22:33;;;;;;;112.45;65.43;;;5.50;99.90;;;;;;4935833;29;20573;-86
2022/01/17 02:25:00;;;;;;;105.38;67.60;;;5.50;99.90;;;;;;4936458;29;20191;-86
2022/01/17 02:27:26;;;;;;;108.93;65.75;;;5.50;99.90;;;;;;4936368;29;20168;-86
2022/01/17 02:29:52;;;;;;;110.72;65.47;;;5.50;99.90;;;;;;4936552;29;20279;-86
2022/01/17 02:32:17;;;;;;;112.47;63.73;;;5.50;99.90;;;;;;4935554;29;20713;-87
2022/01/17 02:34:46;;;;;;;114.10;78.73;;;5.50;99.90;;;;;;4936449;29;20528;-86
2022/01/17 02:37:13;;;;;;;111.72;63.20;;;5.50;99.90;;;;;;4935032;29;20227;-86
2022/01/17 02:39:42;;;;;;;120.57;94.97;;;5.50;99.90;;;;;;4934909;29;20175;-86
2022/01/17 02:42:10;;;;;;;103.97;58.10;;;5.60;99.90;;;;;;4936019;29;20259;-87
2022/01/17 02:44:44;;;;;;;113.25;57.20;;;5.60;99.90;;;;;;4934780;29;20224;-86
2022/01/17 02:47:09;;;;;;;110.85;58.28;;;5.60;99.90;;;;;;4935366;29;20180;-86
2022/01/17 02:49:35;;;;;;;132.33;102.67;;;5.60;99.90;;;;;;4936101;29;20255;-86
2022/01/17 02:52:04;;;;;;;112.27;63.17;;;5.60;99.90;;;;;;4935891;29;20161;-86
2022/01/17 02:54:30;;;;;;;113.45;66.63;;;5.60;99.90;;;;;;4936336;29;20192;-87
2022/01/17 02:56:56;;;;;;;106.43;56.30;;;5.60;99.90;;;;;;4936150;29;20176;-86
2022/01/17 02:59:21;;;;;;;110.53;57.07;;;5.60;99.90;;;;;;4935664;29;20772;-86
2022/01/17 03:01:48;;;;;;;115.73;69.27;;;5.60;99.90;;;;;;4936121;29;20456;-86
2022/01/17 03:04:14;;;;;;;112.85;70.43;;;5.60;99.90;;;;;;4935088;29;20271;-86
2022/01/17 03:06:42;;;;;;;123.87;70.27;;;5.60;99.90;;;;;;4935906;29;20656;-86
2022/01/17 03:09:08;;;;;;;119.10;75.85;;;5.60;99.90;;;;;;4936357;29;20228;-86
2022/01/17 03:11:34;;;;;;;109.23;58.93;;;5.60;99.90;;;;;;4936015;29;20192;-86
2022/01/17 03:13:59;;;;;;;109.50;64.87;;;5.60;99.90;;;;;;4936229;29;20198;-87
2022/01/17 03:16:30;;;;;;;112.33;69.20;;;5.60;99.90;;;;;;4936484;29;20161;-86
2022/01/17 03:19:00;;;;;;;107.93;67.70;;;5.60;99.90;;;;;;4935061;29;20161;-86
2022/01/17 03:21:28;;;;;;;103.78;57.58;;;5.60;99.90;;;;;;4936511;29;20561;-86
2022/01/17 03:23:54;;;;;;;110.45;58.33;;;5.60;99.90;;;;;;4935825;29;20164;-87
2022/01/17 03:26:22;;;;;;;111.07;66.20;;;5.60;99.90;;;;;;4936087;29;20172;-87
2022/01/17 03:28:48;;;;;;;108.43;58.63;;;5.60;99.90;;;;;;4936179;29;20412;-87
2022/01/17 03:31:14;;;;;;;115.07;62.27;;;5.60;99.90;;;;;;4936739;29;20196;-87
2022/01/17 03:33:40;;;;;;;117.03;67.97;;;5.60;99.90;;;;;;4935503;29;20927;-87
2022/01/17 03:36:07;;;;;;;109.35;65.10;;;5.60;99.90;;;;;;4934678;29;20495;-87
2022/01/17 03:38:34;;;;;;;133.73;94.75;;;5.60;99.90;;;;;;4934601;29;20672;-87
2022/01/17 03:41:01;;;;;;;108.00;62.65;;;5.70;99.90;;;;;;4935838;29;20165;-86
2022/01/17 03:43:30;;;;;;;110.82;59.95;;;5.70;99.90;;;;;;4935872;29;20641;-86
2022/01/17 03:45:57;;;;;;;112.03;61.85;;;5.70;99.90;;;;;;4935614;29;20189;-86
2022/01/17 03:48:27;;;;;;;111.68;67.15;;;5.70;99.90;;;;;;4935011;29;20640;-87
2022/01/17 03:50:55;;;;;;;120.22;62.33;;;5.70;99.90;;;;;;4934765;29;20214;-87
2022/01/17 03:53:21;;;;;;;114.18;67.32;;;5.70;99.90;;;;;;4935735;29;20167;-87
2022/01/17 03:55:46;;;;;;;115.63;67.65;;;5.70;99.90;;;;;;4935773;29;20196;-87
2022/01/17 03:58:15;;;;;;;111.43;62.03;;;5.70;99.90;;;;;;4935611;29;20636;-86
2022/01/17 04:00:44;;;;;;;114.28;62.05;;;5.70;99.90;;;;;;4934359;29;20412;-86
2022/01/17 04:03:11;;;;;;;115.40;71.95;;;5.60;99.90;;;;;;4935930;29;20169;-86
2022/01/17 04:05:37;;;;;;;110.05;67.20;;;5.70;99.90;;;;;;4938250;29;20196;-86
2022/01/17 04:08:06;;;;;;;115.45;68.32;;;5.70;99.90;;;;;;4939198;29;20215;-86
2022/01/17 04:10:32;;;;;;;115.20;61.97;;;5.70;99.90;;;;;;4937440;29;20223;-87
2022/01/17 04:13:03;;;;;;;116.60;58.40;;;5.70;99.90;;;;;;4937960;29;20684;-86
2022/01/17 04:15:39;;;;;;;121.53;75.07;;;5.80;99.90;;;;;;4937515;29;20433;-86
2022/01/17 04:18:23;;;;;;;109.55;57.83;;;5.80;99.90;;;;;;4937665;29;20212;-87
2022/01/17 04:20:49;;;;;;;112.38;63.40;;;5.80;99.90;;;;;;4937356;29;20164;-86
2022/01/17 04:23:17;;;;;;;107.23;60.10;;;5.80;99.90;;;;;;4939071;29;20169;-86
2022/01/17 04:25:44;;;;;;;114.88;63.38;;;5.80;99.90;;;;;;4938571;29;20425;-87
2022/01/17 04:28:14;;;;;;;109.97;66.45;;;5.70;99.90;;;;;;4938020;29;20184;-87
2022/01/17 04:30:41;;;;;;;113.40;65.38;;;5.70;99.90;;;;;;4937445;29;20204;-86
2022/01/17 04:33:07;;;;;;;108.53;64.78;;;5.70;99.90;;;;;;4937337;29;20169;-87
2022/01/17 04:35:35;;;;;;;113.60;73.67;;;5.60;99.90;;;;;;4937271;29;20203;-87
2022/01/17 04:38:17;;;;;;;109.45;59.97;;;5.60;99.90;;;;;;4938772;29;20916;-86
2022/01/17 04:40:48;;;;;;;119.15;68.45;;;5.70;99.90;;;;;;4937301;29;20177;-87
2022/01/17 04:43:22;;;;;;;111.85;61.72;;;5.60;99.90;;;;;;4937877;29;20165;-87
2022/01/17 04:45:49;;;;;;;115.22;60.95;;;5.60;99.90;;;;;;4938360;29;20730;-86
2022/01/17 04:48:16;;;;;;;105.68;61.40;;;5.70;99.90;;;;;;4938561;29;20177;-87
2022/01/17 04:50:42;;;;;;;112.40;69.00;;;5.60;99.90;;;;;;4937133;29;20196;-87
2022/01/17 04:53:21;;;;;;;117.18;68.43;;;5.70;99.90;;;;;;4937431;29;20172;-87
2022/01/17 04:55:48;;;;;;;113.35;58.35;;;5.70;99.90;;;;;;4937003;29;20200;-87
2022/01/17 04:58:17;;;;;;;109.05;64.07;;;5.60;99.90;;;;;;4937209;29;20179;-87
2022/01/17 05:00:47;;;;;;;110.60;63.20;;;5.70;99.90;;;;;;4938435;29;20175;-87
2022/01/17 05:03:24;;;;;;;110.25;66.30;;;5.60;99.90;;;;;;4937147;29;20240;-87
2022/01/17 05:05:53;;;;;;;118.72;56.70;;;5.60;99.90;;;;;;4937249;29;20321;-87
2022/01/17 05:08:21;;;;;;;113.47;68.43;;;5.70;99.90;;;;;;4937137;29;20169;-86
2022/01/17 05:10:52;;;;;;;116.57;72.90;;;5.70;99.90;;;;;;4936797;29;20204;-87
2022/01/17 05:13:24;;;;;;;109.28;61.33;;;5.70;99.90;;;;;;4937349;29;20161;-87
2022/01/17 05:16:05;;;;;;;124.80;77.90;;;5.70;99.90;;;;;;4936245;29;20654;-87
2022/01/17 05:20:57;;;;;;;115.07;76.77;;;5.80;99.90;;;;;;4937907;29;20740;-87
2022/01/17 05:23:23;;;;;;;115.43;68.73;;;5.70;99.90;;;;;;4938030;29;20499;-87
2022/01/17 05:25:49;;;;;;;118.97;65.73;;;5.70;99.90;;;;;;4937721;29;20188;-87
2022/01/17 05:28:14;;;;;;;111.03;71.68;;;5.70;99.90;;;;;;4937678;29;20409;-87
2022/01/17 05:30:43;;;;;;;114.77;69.20;;;5.80;99.90;;;;;;4938027;29;20553;-87
2022/01/17 05:33:09;;;;;;;118.75;66.78;;;5.80;99.90;;;;;;4937877;29;20419;-87
2022/01/17 05:35:35;;;;;;;118.67;71.97;;;5.80;99.90;;;;;;4937475;29;20184;-87
2022/01/17 05:38:01;;;;;;;115.50;75.60;;;5.80;99.90;;;;;;4936166;29;20176;-87
2022/01/17 05:40:27;;;;;;;118.13;78.07;;;5.80;99.90;;;;;;4937591;29;20176;-87
2022/01/17 05:42:53;;;;;;;113.45;71.28;;;5.80;99.90;;;;;;4936366;29;20504;-87
2022/01/17 05:45:40;;;;;;;117.20;82.10;;;5.80;99.90;;;;;;4936426;29;20192;-87
2022/01/17 05:48:05;;;;;;;124.32;77.68;;;5.70;99.90;;;;;;4937523;29;20579;-87
2022/01/17 05:50:34;;;;;;;119.40;78.33;;;5.80;99.90;;;;;;4936755;29;20287;-87
2022/01/17 05:53:45;;;;;;;124.13;91.22;;;5.80;99.90;;;;;;4937559;29;20403;-87
2022/01/17 05:56:21;;;;;;;113.70;67.65;;;5.80;99.90;;;;;;4937454;29;20185;-87
2022/01/17 05:58:47;;;;;;;131.43;105.80;;;5.80;99.90;;;;;;4937752;29;20194;-87
2022/01/17 06:01:14;;;;;;;124.47;89.07;;;5.80;99.90;;;;;;4938229;29;20259;-87
2022/01/17 06:03:40;;;;;;;126.95;96.07;;;5.80;99.90;;;;;;4936670;29;20428;-87
2022/01/17 06:06:06;;;;;;;118.13;70.75;;;5.80;99.90;;;;;;4937724;29;20165;-87
2022/01/17 06:08:33;;;;;;;133.52;111.75;;;5.80;99.90;;;;;;4935801;29;20177;-87
2022/01/17 06:10:59;;;;;;;126.15;92.13;;;5.80;99.90;;;;;;4937590;29;20271;-87
2022/01/17 06:13:25;;;;;;;122.30;88.05;;;5.80;99.90;;;;;;4937545;29;20175;-87
2022/01/17 06:15:51;;;;;;;122.90;92.75;;;5.80;99.90;;;;;;4935915;29;20188;-87
2022/01/17 06:18:29;;;;;;;123.35;92.95;;;5.80;99.90;;;;;;4936949;29;20168;-87
2022/01/17 06:21:05;;;;;;;122.00;100.70;;;5.80;99.90;;;;;;4936733;29;20255;-87
2022/01/17 06:23:36;;;;;;;121.15;85.25;;;5.80;99.90;;;;;;4935731;29;20219;-87
2022/01/17 06:26:02;;;;;;;120.65;92.47;;;5.80;99.90;;;;;;4937243;29;20157;-87
2022/01/17 06:28:35;;;;;;;124.70;93.10;;;5.80;99.90;;;;;;4934672;29;20191;-87
2022/01/17 06:31:13;;;;;;;128.70;98.03;;;5.80;99.90;;;;;;4937103;29;20947;-87
2022/01/17 06:33:39;;;;;;;124.78;93.95;;;5.70;99.90;;;;;;4936663;29;20172;-87
2022/01/17 06:36:05;;;;;;;125.47;95.07;;;5.80;99.90;;;;;;4935625;29;20211;-87
2022/01/17 06:38:31;;;;;;;131.98;103.25;;;5.80;99.90;;;;;;4935885;29;20408;-87
2022/01/17 06:41:05;;;;;;;118.87;83.90;;;5.80;99.90;;;;;;4937396;29;20403;-87
2022/01/17 06:43:34;;;;;;;116.97;83.13;;;5.80;99.90;;;;;;4936843;29;20400;-87
2022/01/17 06:46:00;;;;;;;130.73;110.72;;;5.90;99.90;;;;;;4936466;29;20533;-86
2022/01/17 06:48:26;;;;;;;119.83;96.60;;;5.80;99.90;;;;;;4936289;29;20175;-87
2022/01/17 06:50:52;;;;;;;129.18;94.55;;;5.90;99.90;;;;;;4935721;29;20484;-87
2022/01/17 06:53:26;;;;;;;126.63;96.82;;;5.90;99.90;;;;;;4935288;29;20179;-86
2022/01/17 06:55:52;;;;;;;122.75;93.10;;;5.90;99.90;;;;;;4936479;29;20548;-87
2022/01/17 06:58:21;;;;;;;120.40;106.47;;;5.90;99.90;;;;;;4936678;29;20249;-87
2022/01/17 07:00:53;;;;;;;119.22;96.15;;;5.90;99.90;;;;;;4936614;29;20801;-87
2022/01/17 07:03:22;;;;;;;122.60;87.25;;;5.90;99.90;;;;;;4935414;29;20168;-87
2022/01/17 07:05:51;;;;;;;120.55;86.53;;;5.90;99.90;;;;;;4936845;29;20184;-87
2022/01/17 07:08:23;;;;;;;118.95;96.68;;;5.90;99.90;;;;;;4936492;29;20435;-87
2022/01/17 07:11:01;;;;;;;116.85;79.50;;;5.90;99.90;;;;;;4936547;29;20200;-87
2022/01/17 07:13:27;;;;;;;118.63;85.80;;;5.90;99.90;;;;;;4935989;29;20199;-87
2022/01/17 07:15:53;;;;;;;118.22;91.05;;;5.90;99.90;;;;;;4936659;29;20197;-87
2022/01/17 07:18:22;;;;;;;117.33;86.70;;;5.90;99.90;;;;;;4936931;29;20502;-87
2022/01/17 07:20:48;;;;;;;123.28;84.85;;;5.90;99.90;;;;;;4937141;29;20425;-87
2022/01/17 07:23:44;;;;;;;117.93;81.30;;;6.00;99.90;;;;;;4935420;29;20263;-87
2022/01/17 07:26:19;;;;;;;112.65;77.57;;;5.90;99.90;;;;;;4935625;29;20421;-86
2022/01/17 07:28:54;;;;;;;112.90;75.28;;;6.00;99.90;;;;;;4935542;29;20180;-87
2022/01/17 07:31:54;;;;;;;124.53;95.55;;;5.90;99.90;;;;;;4936725;29;20195;-86
2022/01/17 07:34:28;;;;;;;111.95;77.90;;;5.90;99.90;;;;;;4938138;29;20201;-87
2022/01/17 07:37:19;;;;;;;113.25;77.97;;;5.90;99.90;;;;;;4936070;29;20603;-87
2022/01/17 07:39:54;;;;;;;170.57;153.40;;;5.90;99.90;;;;;;4939982;29;20149;-87
2022/01/17 07:42:35;;;;;;;108.47;78.05;;;5.90;99.90;;;;;;4938711;29;20175;-87
2022/01/17 07:45:56;;;;;;;115.28;82.32;;;5.90;99.90;;;;;;4940191;29;20180;-87
2022/01/17 07:51:52;;;;;;;107.43;70.57;;;6.00;99.90;;;;;;4940346;29;20183;-87
2022/01/17 07:57:45;;;;;;;105.22;70.45;;;6.10;99.90;;;;;;4940334;29;20167;-87
2022/01/17 08:00:48;;;;;;;114.88;76.15;;;6.00;99.90;;;;;;4939799;29;20199;-87
2022/01/17 08:03:33;;;;;;;108.53;82.10;;;6.00;99.90;;;;;;4900887;29;20279;-87
2022/01/17 08:06:27;;;;;;;112.60;85.72;;;6.10;99.90;;;;;;4939609;29;20200;-87
2022/01/17 08:11:58;;;;;;;102.93;56.22;;;6.10;99.90;;;;;;4928297;29;20188;-87
2022/01/17 08:14:42;;;;;;;121.93;80.53;;;6.10;99.90;;;;;;4921958;29;20211;-87
2022/01/17 08:17:41;;;;;;;101.00;58.97;;;6.10;99.90;;;;;;4922024;29;20185;-87
2022/01/17 08:20:34;;;;;;;101.38;57.25;;;6.20;99.90;;;;;;4874441;29;20734;-87
2022/01/17 08:23:31;;;;;;;96.97;40.55;;;6.20;99.90;;;;;;4865542;29;20273;-87
2022/01/17 08:26:33;;;;;;;96.47;41.30;;;6.20;99.90;;;;;;4929821;29;20229;-87
2022/01/17 08:29:30;;;;;;;98.55;43.78;;;6.30;99.90;;;;;;4921765;29;20575;-87
2022/01/17 08:32:12;;;;;;;98.13;38.15;;;6.30;99.90;;;;;;4935146;29;20197;-87
2022/01/17 08:35:28;;;;;;;100.30;33.45;;;6.30;99.90;;;;;;4938020;29;20196;-88
2022/01/17 08:37:57;;;;;;;99.28;39.35;;;6.40;99.90;;;;;;4940424;29;20172;-88
2022/01/17 08:40:25;;;;;;;95.43;37.70;;;6.40;99.90;;;;;;4942837;29;20169;-88
2022/01/17 08:42:51;;;;;;;97.55;35.08;;;6.40;99.90;;;;;;4946955;29;20169;-88
2022/01/17 08:45:21;;;;;;;105.43;42.60;;;6.40;99.90;;;;;;4941940;29;20200;-87
2022/01/17 08:47:53;;;;;;;102.35;38.60;;;6.40;99.90;;;;;;4944654;29;20412;-88
2022/01/17 08:50:20;;;;;;;95.97;37.25;;;6.50;99.90;;;;;;4942632;29;20209;-88
2022/01/17 08:52:47;;;;;;;101.28;37.40;;;6.50;99.90;;;;;;4943879;29;20204;-88
2022/01/17 08:55:14;;;;;;;91.80;32.15;;;6.50;99.90;;;;;;4945332;29;20189;-88
2022/01/17 08:57:40;;;;;;;104.40;36.83;;;6.50;99.90;;;;;;4943755;29;20625;-87
2022/01/17 09:00:15;;;;;;;101.70;44.55;;;6.50;99.90;;;;;;4945300;29;20172;-88
2022/01/17 09:02:41;;;;;;;109.10;52.25;;;6.50;99.90;;;;;;4944239;29;20190;-87
2022/01/17 09:05:08;;;;;;;93.82;39.10;;;6.50;99.90;;;;;;4941071;29;20193;-87
2022/01/17 09:07:37;;;;;;;97.07;34.70;;;6.40;99.90;;;;;;4941864;29;20211;-88
2022/01/17 09:10:15;;;;;;;102.80;47.05;;;6.40;99.90;;;;;;4942808;29;20203;-87
2022/01/17 09:12:40;;;;;;;99.03;40.72;;;6.40;99.90;;;;;;4943691;29;20687;-87
2022/01/17 09:15:10;;;;;;;104.37;55.20;;;6.40;99.90;;;;;;4944698;29;20248;-87
2022/01/17 09:17:36;;;;;;;145.43;129.88;;;6.40;99.90;;;;;;4941330;29;20499;-88
2022/01/17 09:20:17;;;;;;;121.13;75.32;;;6.40;99.90;;;;;;4943048;29;20176;-88
2022/01/17 09:22:48;;;;;;;112.72;76.38;;;6.40;99.90;;;;;;4943644;29;20174;-88
2022/01/17 09:25:23;;;;;;;104.00;65.95;;;6.40;99.90;;;;;;4947094;29;20287;-88
2022/01/17 09:27:52;;;;;;;109.10;70.88;;;6.50;99.90;;;;;;4943828;29;20160;-88
2022/01/17 09:30:21;;;;;;;120.53;79.60;;;6.50;99.90;;;;;;4942876;29;20220;-88
2022/01/17 09:33:13;;;;;;;130.40;97.93;;;6.60;99.90;;;;;;4946278;29;20164;-88
2022/01/17 09:35:39;;;;;;;122.03;86.05;;;6.50;99.90;;;;;;4945076;29;20220;-88
2022/01/17 09:38:18;;;;;;;128.00;106.53;;;6.60;99.90;;;;;;4944938;29;20513;-88
2022/01/17 09:40:49;;;;;;;126.78;104.00;;;6.70;99.90;;;;;;4945615;29;20171;-88
2022/01/17 09:43:18;;;;;;;117.28;81.90;;;6.80;99.90;;;;;;4946207;29;20157;-88
2022/01/17 09:45:44;;;;;;;119.72;79.47;;;6.90;99.90;;;;;;4946212;29;20192;-88
2022/01/17 09:48:38;;;;;;;124.03;88.30;;;6.90;99.90;;;;;;4944196;29;20188;-88
2022/01/17 09:51:33;;;;;;;119.53;80.30;;;6.90;99.90;;;;;;4946905;29;20947;-88
2022/01/17 09:54:00;;;;;;;118.40;86.90;;;6.90;99.90;;;;;;4943654;29;20222;-88
2022/01/17 09:56:30;;;;;;;129.18;98.68;;;7.10;99.90;;;;;;4944357;29;20581;-88
2022/01/17 09:59:02;;;;;;;113.57;92.78;;;7.20;99.90;;;;;;4945173;29;20165;-88
2022/01/17 10:01:30;;;;;;;115.35;79.88;;;7.20;99.90;;;;;;4941713;29;20171;-88
2022/01/17 10:04:02;;;;;;;106.60;51.42;;;7.20;99.90;;;;;;4942895;29;20287;-88
2022/01/17 10:06:30;;;;;;;104.28;44.33;;;7.20;99.90;;;;;;4942163;29;20165;-88
2022/01/17 10:09:29;;;;;;;100.45;41.63;;;7.20;99.90;;;;;;4942088;29;20228;-88
2022/01/17 10:12:11;;;;;;;101.57;37.10;;;7.30;99.90;;;;;;4931256;29;20212;-88
2022/01/17 10:14:41;;;;;;;100.00;39.08;;;7.30;99.90;;;;;;4941807;29;20187;-88
2022/01/17 10:17:15;;;;;;;101.50;47.13;;;7.30;99.90;;;;;;4942074;29;20247;-88
2022/01/17 10:19:43;;;;;;;118.55;46.75;;;7.30;99.90;;;;;;4940830;29;20157;-88
2022/01/17 10:22:25;;;;;;;139.18;113.10;;;7.20;99.90;;;;;;4939944;29;20622;-88
2022/01/17 10:25:24;;;;;;;113.57;49.22;;;7.10;99.90;;;;;;4941451;29;20188;-88
2022/01/17 10:28:21;;;;;;;120.32;59.63;;;7.10;99.90;;;;;;4939385;29;20165;-88
2022/01/17 10:36:46;;;;;;;119.95;99.28;;;7.10;99.90;;;;;;4941908;29;20700;-88
2022/01/17 10:39:12;;;;;;;119.68;92.07;;;7.20;99.90;;;;;;4939609;29;20617;-87
2022/01/17 10:41:38;;;;;;;133.63;114.30;;;7.20;99.90;;;;;;4939672;29;20176;-87
2022/01/17 10:44:07;;;;;;;193.35;176.27;;;7.20;99.90;;;;;;4938987;29;20443;-87
2022/01/17 10:46:33;;;;;;;133.38;119.00;;;7.20;99.90;;;;;;4940238;29;20192;-87
2022/01/17 10:49:00;;;;;;;138.18;123.75;;;7.20;99.90;;;;;;4941052;29;20220;-87
2022/01/17 10:51:33;;;;;;;126.15;106.43;;;7.20;99.90;;;;;;4940572;29;20389;-88
2022/01/17 10:54:12;;;;;;;133.07;107.70;;;7.30;99.90;;;;;;4939709;29;20227;-88
2022/01/17 10:56:50;;;;;;;137.70;121.50;;;7.40;99.90;;;;;;4940441;29;20675;-87
2022/01/17 10:59:31;;;;;;;129.20;114.28;;;7.60;99.90;;;;;;4939681;29;20160;-87
2022/01/17 11:01:59;;;;;;;121.40;91.65;;;7.60;99.90;;;;;;4941192;29;20172;-87
2022/01/17 11:04:36;;;;;;;116.25;90.20;;;7.70;99.90;;;;;;4940329;29;20199;-88
2022/01/17 11:07:05;;;;;;;110.90;66.60;;;7.60;99.90;;;;;;4942963;29;20164;-87
2022/01/17 11:09:41;;;;;;;107.10;51.00;;;7.70;99.90;;;;;;4939708;29;20164;-87
2022/01/17 11:12:15;;;;;;;101.82;53.63;;;7.70;99.90;;;;;;4939663;29;20235;-88
2022/01/17 11:14:43;;;;;;;106.90;42.88;;;7.60;99.90;;;;;;4942799;29;20184;-87
2022/01/17 11:17:26;;;;;;;102.53;44.83;;;7.60;99.90;;;;;;4943396;29;20494;-87
2022/01/17 11:20:05;;;;;;;104.88;37.45;;;7.60;99.90;;;;;;4943991;29;20168;-88
2022/01/17 11:22:33;;;;;;;93.47;38.45;;;7.60;99.90;;;;;;4943175;29;20165;-87
2022/01/17 11:24:59;;;;;;;97.32;40.10;;;7.60;99.90;;;;;;4943238;29;20180;-87
2022/01/17 11:27:25;;;;;;;106.40;50.10;;;7.50;99.90;;;;;;4944353;29;20216;-87
2022/01/17 11:29:52;;;;;;;99.50;48.55;;;7.50;99.90;;;;;;4940034;29;20187;-88
2022/01/17 11:32:18;;;;;;;105.72;66.05;;;7.50;99.90;;;;;;4940884;29;20639;-87
2022/01/17 11:34:43;;;;;;;114.60;71.30;;;7.50;99.90;;;;;;4940264;29;20212;-87
2022/01/17 11:37:11;;;;;;;113.30;77.07;;;7.50;99.90;;;;;;4939429;29;20791;-86
2022/01/17 11:39:51;;;;;;;104.97;63.28;;;7.50;99.90;;;;;;4939583;29;20741;-87
2022/01/17 11:42:29;;;;;;;111.40;67.00;;;7.50;99.90;;;;;;4940352;29;20161;-87
2022/01/17 11:44:55;;;;;;;107.72;73.88;;;7.50;99.90;;;;;;4939734;29;20188;-87
2022/01/17 11:47:48;;;;;;;115.63;80.10;;;7.50;99.90;;;;;;4939767;29;20179;-87
2022/01/17 11:50:29;;;;;;;133.55;111.97;;;7.40;99.90;;;;;;4939325;29;20196;-88
2022/01/17 11:53:06;;;;;;;126.85;112.97;;;7.40;99.90;;;;;;4940800;29;20608;-87
2022/01/17 11:55:45;;;;;;;131.48;117.43;;;7.40;99.90;;;;;;4938345;29;20604;-87
2022/01/17 11:58:25;;;;;;;134.48;120.22;;;7.40;99.90;;;;;;4940536;29;20167;-87
2022/01/17 12:00:57;;;;;;;125.18;111.25;;;7.40;99.90;;;;;;4938999;29;20235;-87
2022/01/17 12:03:25;;;;;;;134.52;120.30;;;7.50;99.90;;;;;;4938932;29;20172;-87
2022/01/17 12:05:53;;;;;;;137.70;123.80;;;7.40;99.90;;;;;;4938264;29;20188;-88
2022/01/17 12:08:21;;;;;;;149.38;134.43;;;7.40;99.90;;;;;;4938916;29;20179;-88
2022/01/17 12:10:52;;;;;;;147.43;133.00;;;7.40;99.90;;;;;;4939850;29;20240;-88
2022/01/17 12:13:20;;;;;;;140.68;126.70;;;7.50;99.90;;;;;;4942324;29;20200;-88
2022/01/17 12:16:06;;;;;;;161.73;146.43;;;7.40;99.90;;;;;;4940892;29;20550;-88
2022/01/17 12:18:37;;;;;;;133.68;118.75;;;7.40;99.90;;;;;;4941757;29;20234;-88
2022/01/17 12:21:28;;;;;;;126.70;113.07;;;7.30;99.90;;;;;;4938579;29;20179;-88
2022/01/17 12:24:19;;;;;;;120.72;102.80;;;7.30;99.90;;;;;;4940641;29;20180;-88
2022/01/17 12:27:03;;;;;;;132.00;118.28;;;7.30;99.90;;;;;;4940160;29;20176;-87
2022/01/17 12:29:55;;;;;;;138.13;124.35;;;7.30;99.90;;;;;;4940306;29;20183;-88
2022/01/17 12:32:24;;;;;;;112.47;89.22;;;7.30;99.90;;;;;;4939207;29;20183;-88
2022/01/17 12:35:08;;;;;;;194.80;178.15;;;7.30;99.90;;;;;;4940247;29;20224;-88
2022/01/17 12:38:06;;;;;;;114.18;93.65;;;7.30;99.90;;;;;;4942325;29;20153;-87
2022/01/17 12:40:44;;;;;;;142.65;129.00;;;7.30;99.90;;;;;;4941114;29;20179;-88
2022/01/17 12:43:14;;;;;;;116.18;96.45;;;7.30;99.90;;;;;;4942078;29;20538;-88
2022/01/17 12:45:54;;;;;;;128.75;113.13;;;7.30;99.90;;;;;;4941043;29;20189;-87
2022/01/17 12:48:40;;;;;;;126.25;112.57;;;7.30;99.90;;;;;;4942076;29;20159;-88
2022/01/17 12:51:12;;;;;;;126.20;101.30;;;7.30;99.90;;;;;;4942138;29;20240;-88
2022/01/17 12:53:48;;;;;;;117.55;99.43;;;7.40;99.90;;;;;;4940133;29;20178;-88
2022/01/17 12:56:14;;;;;;;122.60;106.28;;;7.30;99.90;;;;;;4939809;29;20196;-87
2022/01/17 12:58:41;;;;;;;119.97;101.22;;;7.30;99.90;;;;;;4939732;29;20175;-88
2022/01/17 13:01:17;;;;;;;108.05;84.68;;;7.30;99.90;;;;;;4939403;29;20183;-88
2022/01/17 13:04:01;;;;;;;120.18;95.10;;;7.30;99.90;;;;;;4940726;29;20482;-87
2022/01/17 13:06:27;;;;;;;124.63;98.95;;;7.30;99.90;;;;;;4938679;29;20228;-87
2022/01/17 13:08:55;;;;;;;114.83;86.63;;;7.30;99.90;;;;;;4940197;29;20169;-88
2022/01/17 13:11:50;;;;;;;118.30;95.25;;;7.30;99.90;;;;;;4940681;29;20455;-89
2022/01/17 13:14:35;;;;;;;114.25;90.18;;;7.30;99.90;;;;;;4939569;29;20196;-89
2022/01/17 13:17:07;;;;;;;132.57;118.63;;;7.30;99.90;;;;;;4939521;29;20156;-88
2022/01/17 13:19:36;;;;;;;121.47;97.60;;;7.30;99.90;;;;;;4937629;29;20263;-88
2022/01/17 13:22:03;;;;;;;148.98;134.18;;;7.20;99.90;;;;;;4937401;29;20183;-88
2022/01/17 13:27:09;;;;;;;117.55;94.07;;;7.20;99.90;;;;;;4938872;29;20626;-88
2022/01/17 15:50:19;;;;;;;105.05;59.20;;;7.30;99.90;;;;;;4903647;29;20189;-91
2022/01/17 15:56:24;;;;;;;99.65;53.97;;;7.20;99.90;;;;;;4901210;29;20629;-91
2022/01/17 15:59:37;;;;;;;97.88;51.35;;;7.20;99.90;;;;;;4901879;29;20237;-91
2022/01/17 16:07:12;;;;;;;;;;;;;;;;;;;;;
2022/01/17 16:16:39;;;;;;;98.82;47.97;;;7.30;99.90;;;;;;4894334;29;20214;-91
2022/01/17 16:20:00;;;;;;;96.00;52.10;;;7.30;99.90;;;;;;4869381;29;20393;-91
2022/01/17 16:22:52;;;;;;;98.82;54.70;;;7.30;99.90;;;;;;4849249;29;20317;-91
2022/01/17 16:25:22;;;;;;;92.95;48.85;;;7.30;99.90;;;;;;4832840;29;20706;-91
2022/01/17 16:32:02;;;;;;;98.22;57.05;;;7.30;99.90;;;;;;4869881;29;20203;-91
2022/01/17 16:34:35;;;;;;;96.72;63.72;;;7.30;99.90;;;;;;4861822;29;20715;-91
2022/01/17 16:37:46;;;;;;;108.25;57.35;;;7.40;99.90;;;;;;4889225;29;20170;-91
2022/01/17 16:40:43;;;;;;;;;;;;;;;;;;;;;
2022/01/17 16:47:41;;;;;;;109.93;69.40;;;7.40;99.90;;;;;;4848700;29;20187;-92
2022/01/17 16:53:11;;;;;;;98.20;50.33;;;7.40;99.90;;;;;;4840633;29;20219;-91
2022/01/17 17:12:12;;;;;;;101.57;58.97;;;7.50;99.90;;;;;;5462978;23;20232;-91
2022/01/17 17:22:24;;;;;;;102.25;60.80;;;7.40;99.90;;;;;;4700646;23;20219;-89
2022/01/17 17:29:12;;;;;;;97.05;55.75;;;7.50;99.90;;;;;;4916981;29;20434;-89
2022/01/17 17:43:32;;;;;;;103.40;60.50;;;7.40;99.90;;;;;;4668854;23;20228;-91
2022/01/17 19:31:43;;;;;;;106.30;86.88;;;7.40;99.90;;;;;;3130343;23;20235;-88